Time;durP1;ratioP1;P1;durP2;ratioP2;P2;SDS_P1;SDS_P2;PMS_P1;PMS_P2;Temp;Humidity;BMP_temperature;BMP_pressure;BME280_temperature;BME280_humidity;BME280_pressure;Samples;Min_cycle;Max_cycle;Signal;HPM_P1;HPM_P2
2023/06/16 00:00:37;;;;;;;0.93;0.93;;;18.50;99.90;;;;;;5054069;28;20614;-63
2023/06/16 00:03:03;;;;;;;1.20;1.10;;;18.50;99.90;;;;;;5054108;28;20806;-63
2023/06/16 00:05:30;;;;;;;0.90;0.90;;;18.40;99.90;;;;;;5054045;28;20223;-62
2023/06/16 00:07:58;;;;;;;1.08;1.08;;;18.40;99.90;;;;;;5053859;28;20258;-64
2023/06/16 00:10:25;;;;;;;1.05;1.05;;;18.40;99.90;;;;;;5052926;28;20228;-64
2023/06/16 00:12:52;;;;;;;1.05;1.05;;;18.40;99.90;;;;;;5053425;28;20212;-63
2023/06/16 00:15:21;;;;;;;1.23;1.20;;;18.40;99.90;;;;;;5053670;28;20583;-64
2023/06/16 00:17:49;;;;;;;1.00;1.00;;;18.30;99.90;;;;;;5053526;28;20560;-64
2023/06/16 00:20:19;;;;;;;1.10;1.10;;;18.30;99.90;;;;;;5053101;28;20228;-62
2023/06/16 00:22:47;;;;;;;1.08;1.08;;;18.30;99.90;;;;;;5053391;28;20211;-63
2023/06/16 00:25:16;;;;;;;1.10;1.10;;;18.40;99.90;;;;;;5052876;28;20698;-63
2023/06/16 00:27:42;;;;;;;1.20;1.20;;;18.40;99.90;;;;;;5053196;28;20207;-64
2023/06/16 00:30:12;;;;;;;1.13;1.10;;;18.40;99.90;;;;;;5052805;28;20230;-64
2023/06/16 00:32:40;;;;;;;1.20;1.20;;;18.40;99.90;;;;;;5053123;28;20211;-63
2023/06/16 00:35:08;;;;;;;1.10;1.10;;;18.30;99.90;;;;;;5053175;28;20231;-63
2023/06/16 00:37:35;;;;;;;1.10;1.10;;;18.20;99.90;;;;;;5053174;28;20210;-63
2023/06/16 00:40:04;;;;;;;1.08;1.08;;;18.10;99.90;;;;;;5059503;28;20220;-63
2023/06/16 00:42:30;;;;;;;1.40;1.30;;;18.10;99.90;;;;;;5055128;28;20291;-64
2023/06/16 00:44:57;;;;;;;0.90;0.90;;;18.00;99.90;;;;;;5053209;28;20258;-63
2023/06/16 00:47:24;;;;;;;1.00;1.00;;;18.00;99.90;;;;;;5068729;28;20194;-64
2023/06/16 00:49:52;;;;;;;1.00;1.00;;;18.00;99.90;;;;;;5092321;28;20218;-64
2023/06/16 00:52:21;;;;;;;1.27;1.20;;;18.00;99.90;;;;;;5085532;22;20234;-64
2023/06/16 00:54:48;;;;;;;1.10;1.10;;;17.90;99.90;;;;;;5061626;28;20294;-64
2023/06/16 00:57:15;;;;;;;1.20;1.20;;;17.80;99.90;;;;;;5055291;28;20206;-63
2023/06/16 00:59:42;;;;;;;1.00;1.00;;;17.80;99.90;;;;;;5053268;28;20200;-60
2023/06/16 01:02:09;;;;;;;1.10;1.10;;;17.80;99.90;;;;;;5054731;28;20242;-62
2023/06/16 01:04:36;;;;;;;1.02;1.00;;;17.80;99.90;;;;;;5054247;28;20227;-63
2023/06/16 01:07:11;;;;;;;1.20;1.20;;;17.70;99.90;;;;;;5054502;28;20261;-64
2023/06/16 01:09:45;;;;;;;1.00;1.00;;;17.70;99.90;;;;;;5054105;28;20215;-63
2023/06/16 01:12:23;;;;;;;2.45;1.20;;;17.60;99.90;;;;;;5053285;28;20769;-63
2023/06/16 01:14:56;;;;;;;1.00;1.00;;;17.60;99.90;;;;;;5052689;28;20262;-62
2023/06/16 01:17:26;;;;;;;1.00;1.00;;;17.50;99.90;;;;;;5054158;28;20188;-63
2023/06/16 01:20:07;;;;;;;1.00;1.00;;;17.50;99.90;;;;;;5053510;28;20326;-62
2023/06/16 01:22:53;;;;;;;1.10;1.10;;;17.40;99.90;;;;;;5053313;28;20314;-62
2023/06/16 01:25:23;;;;;;;1.20;1.20;;;17.40;99.90;;;;;;5054294;28;20224;-61
2023/06/16 01:27:52;;;;;;;1.10;1.10;;;17.40;99.90;;;;;;5057560;28;20266;-62
2023/06/16 01:30:22;;;;;;;1.10;1.10;;;17.40;99.90;;;;;;5058258;28;20291;-63
2023/06/16 01:32:52;;;;;;;1.00;1.00;;;17.40;99.90;;;;;;5056719;28;20230;-64
2023/06/16 01:35:21;;;;;;;1.10;1.00;;;17.40;99.90;;;;;;5054731;28;20567;-63
2023/06/16 01:37:50;;;;;;;1.00;1.00;;;17.40;99.90;;;;;;5054925;28;20682;-62
2023/06/16 01:40:18;;;;;;;0.98;0.98;;;17.40;99.90;;;;;;5054433;28;20254;-62
2023/06/16 01:42:48;;;;;;;1.10;1.10;;;17.40;99.90;;;;;;5052673;28;20281;-63
2023/06/16 01:45:16;;;;;;;1.08;1.08;;;17.40;99.90;;;;;;5054221;28;20314;-63
2023/06/16 01:47:43;;;;;;;1.10;1.10;;;17.40;99.90;;;;;;5053607;28;20219;-65
2023/06/16 01:50:11;;;;;;;1.00;1.00;;;17.30;99.90;;;;;;5054449;28;20214;-63
2023/06/16 01:52:38;;;;;;;0.98;0.98;;;17.30;99.90;;;;;;5059219;28;20232;-63
2023/06/16 01:55:05;;;;;;;1.15;1.10;;;17.20;99.90;;;;;;5061433;28;20662;-64
2023/06/16 01:57:32;;;;;;;1.00;1.00;;;17.20;99.90;;;;;;5060966;28;20204;-63
2023/06/16 02:00:04;;;;;;;0.98;0.98;;;17.20;99.90;;;;;;5060345;28;20296;-63
2023/06/16 02:02:33;;;;;;;1.73;1.30;;;17.20;99.90;;;;;;5059401;28;20662;-64
2023/06/16 02:05:03;;;;;;;1.13;1.13;;;17.20;99.90;;;;;;5052784;28;20620;-62
2023/06/16 02:07:34;;;;;;;1.15;1.15;;;17.20;99.90;;;;;;5054059;28;20678;-63
2023/06/16 02:10:02;;;;;;;0.98;0.98;;;17.10;99.90;;;;;;5057879;28;20309;-61
2023/06/16 02:12:30;;;;;;;0.90;0.90;;;17.10;99.90;;;;;;5061228;28;20310;-61
2023/06/16 02:14:57;;;;;;;1.00;1.00;;;17.00;99.90;;;;;;5062115;28;20203;-61
2023/06/16 02:17:26;;;;;;;1.23;1.13;;;16.90;99.90;;;;;;5062028;28;20211;-61
2023/06/16 02:19:53;;;;;;;1.10;1.10;;;16.80;99.90;;;;;;5060138;28;20286;-62
2023/06/16 02:22:21;;;;;;;1.00;1.00;;;16.70;99.90;;;;;;5060274;28;20224;-64
2023/06/16 02:24:48;;;;;;;1.00;1.00;;;16.60;99.90;;;;;;5060487;28;20203;-64
2023/06/16 02:27:15;;;;;;;1.10;1.10;;;16.50;99.90;;;;;;5060328;28;20377;-63
2023/06/16 02:29:42;;;;;;;1.20;1.20;;;16.40;99.90;;;;;;5058378;28;20207;-62
2023/06/16 02:32:09;;;;;;;1.23;1.10;;;16.50;99.90;;;;;;5058953;28;20713;-63
2023/06/16 02:34:37;;;;;;;1.10;1.10;;;16.40;99.90;;;;;;5061174;28;20211;-63
2023/06/16 02:37:04;;;;;;;1.00;1.00;;;16.40;99.90;;;;;;5062813;28;20250;-63
2023/06/16 02:39:32;;;;;;;0.90;0.90;;;16.30;99.90;;;;;;5061291;28;20294;-61
2023/06/16 02:41:59;;;;;;;1.10;1.00;;;16.30;99.90;;;;;;5059578;28;20226;-63
2023/06/16 02:44:26;;;;;;;1.10;1.10;;;16.30;99.90;;;;;;5060184;28;20253;-63
2023/06/16 02:46:54;;;;;;;1.00;1.00;;;16.40;99.90;;;;;;5059031;28;20233;-63
2023/06/16 02:49:21;;;;;;;1.08;1.08;;;16.40;99.90;;;;;;5059448;28;20242;-62
2023/06/16 02:51:50;;;;;;;1.20;1.20;;;16.30;99.90;;;;;;5059905;28;20655;-63
2023/06/16 02:54:17;;;;;;;2.38;1.20;;;16.30;99.90;;;;;;5059807;28;20567;-64
2023/06/16 02:56:44;;;;;;;1.10;1.10;;;16.10;99.90;;;;;;5059346;28;20204;-64
2023/06/16 02:59:11;;;;;;;1.10;1.10;;;16.10;99.90;;;;;;5059934;28;20307;-64
2023/06/16 03:01:37;;;;;;;1.17;1.17;;;16.10;99.90;;;;;;5059051;28;20868;-63
2023/06/16 03:04:04;;;;;;;1.10;1.10;;;16.10;99.90;;;;;;5059817;28;20204;-62
2023/06/16 03:06:34;;;;;;;1.00;1.00;;;16.10;99.90;;;;;;5061000;28;20255;-62
2023/06/16 03:09:04;;;;;;;1.23;1.23;;;16.10;99.90;;;;;;5066160;28;20230;-63
2023/06/16 03:11:33;;;;;;;0.90;0.90;;;16.30;99.90;;;;;;5062432;28;20220;-62
2023/06/16 03:14:00;;;;;;;1.10;1.10;;;16.30;99.90;;;;;;5060486;28;20583;-62
2023/06/16 03:16:27;;;;;;;1.00;1.00;;;16.20;99.90;;;;;;5060679;28;20227;-63
2023/06/16 03:18:55;;;;;;;1.30;1.20;;;16.10;99.90;;;;;;5065901;28;20212;-63
2023/06/16 03:21:22;;;;;;;1.00;1.00;;;16.10;99.90;;;;;;5062511;28;20224;-61
2023/06/16 03:23:50;;;;;;;1.08;1.08;;;16.10;99.90;;;;;;5061256;28;20296;-63
2023/06/16 03:26:18;;;;;;;1.30;1.30;;;16.00;99.90;;;;;;5063690;28;20226;-63
2023/06/16 03:28:45;;;;;;;1.13;1.13;;;15.90;99.90;;;;;;5065370;28;20243;-64
2023/06/16 03:31:12;;;;;;;1.30;1.20;;;15.90;99.90;;;;;;5060805;28;20313;-62
2023/06/16 03:33:39;;;;;;;1.10;1.10;;;15.90;99.90;;;;;;5056965;28;20219;-62
2023/06/16 03:36:07;;;;;;;1.00;1.00;;;15.90;99.90;;;;;;5057496;28;20231;-62
2023/06/16 03:38:34;;;;;;;1.20;1.20;;;15.90;99.90;;;;;;5058690;28;20208;-62
2023/06/16 03:41:01;;;;;;;1.00;1.00;;;15.90;99.90;;;;;;5058819;28;20234;-63
2023/06/16 03:43:29;;;;;;;1.48;1.38;;;15.90;99.90;;;;;;5057364;28;20287;-64
2023/06/16 03:45:57;;;;;;;1.20;1.20;;;15.90;99.90;;;;;;5055931;28;20245;-63
2023/06/16 03:48:23;;;;;;;1.30;1.23;;;15.90;99.90;;;;;;5057462;28;20230;-63
2023/06/16 03:50:52;;;;;;;1.55;1.40;;;15.90;99.90;;;;;;5056076;28;20230;-64
2023/06/16 03:53:19;;;;;;;1.20;1.20;;;15.90;99.90;;;;;;5056748;28;20678;-62
2023/06/16 03:55:47;;;;;;;1.20;1.20;;;15.90;99.90;;;;;;5055265;28;20203;-62
2023/06/16 03:58:15;;;;;;;1.50;1.40;;;15.90;99.90;;;;;;5056155;28;20204;-63
2023/06/16 04:00:43;;;;;;;1.33;1.23;;;16.00;99.90;;;;;;5054607;28;20218;-64
2023/06/16 04:03:10;;;;;;;1.08;1.08;;;16.00;99.90;;;;;;5055226;28;20211;-62
2023/06/16 04:05:37;;;;;;;1.10;1.10;;;15.90;99.90;;;;;;5054873;28;20230;-62
2023/06/16 04:08:05;;;;;;;1.30;1.23;;;16.00;99.90;;;;;;5054843;28;20295;-62
2023/06/16 04:10:31;;;;;;;1.10;1.10;;;15.90;99.90;;;;;;5054725;28;20219;-62
2023/06/16 04:12:58;;;;;;;1.20;1.20;;;15.90;99.90;;;;;;5054658;28;20224;-59
2023/06/16 04:15:25;;;;;;;1.48;1.38;;;16.20;99.90;;;;;;5054273;28;20215;-59
2023/06/16 04:17:53;;;;;;;1.33;1.20;;;16.80;99.90;;;;;;5053807;28;20231;-59
2023/06/16 04:20:20;;;;;;;1.35;1.35;;;17.30;99.90;;;;;;5053533;28;20637;-59
2023/06/16 04:22:47;;;;;;;1.10;1.10;;;17.60;99.90;;;;;;5054021;28;20234;-59
2023/06/16 04:25:13;;;;;;;1.30;1.20;;;17.80;99.90;;;;;;5056292;28;20260;-59
2023/06/16 04:27:41;;;;;;;1.40;1.30;;;18.00;99.90;;;;;;5054920;28;20252;-59
2023/06/16 04:30:08;;;;;;;1.33;1.30;;;18.20;99.90;;;;;;5054529;28;20203;-59
2023/06/16 04:32:36;;;;;;;2.67;2.50;;;18.30;99.90;;;;;;5053204;28;20223;-59
2023/06/16 04:35:04;;;;;;;2.13;2.03;;;18.50;99.90;;;;;;5052380;28;20200;-59
2023/06/16 04:37:33;;;;;;;1.52;1.42;;;18.60;99.90;;;;;;5052788;28;20526;-59
2023/06/16 04:39:59;;;;;;;1.67;1.58;;;18.70;99.90;;;;;;5066934;28;20225;-60
2023/06/16 04:42:28;;;;;;;1.67;1.58;;;18.80;99.90;;;;;;5074045;28;20227;-59
2023/06/16 04:44:55;;;;;;;1.67;1.63;;;18.90;99.90;;;;;;5066924;28;20207;-60
2023/06/16 04:47:22;;;;;;;1.80;1.70;;;18.90;99.90;;;;;;5053858;28;20705;-60
2023/06/16 04:49:49;;;;;;;1.50;1.40;;;18.90;99.90;;;;;;5055985;28;20239;-59
2023/06/16 04:52:17;;;;;;;1.20;1.20;;;18.90;99.90;;;;;;5059793;28;20242;-59
2023/06/16 04:54:44;;;;;;;1.25;1.25;;;19.00;99.90;;;;;;5061516;28;20207;-60
2023/06/16 04:57:10;;;;;;;1.20;1.20;;;18.90;99.90;;;;;;5058341;28;20196;-60
2023/06/16 04:59:37;;;;;;;1.20;1.20;;;18.90;99.90;;;;;;5052460;28;20208;-59
2023/06/16 05:02:04;;;;;;;1.27;1.23;;;19.00;99.90;;;;;;5049530;28;20232;-59
2023/06/16 05:04:31;;;;;;;1.55;1.30;;;19.00;99.90;;;;;;5047115;28;20199;-59
2023/06/16 05:06:58;;;;;;;1.42;1.30;;;19.00;99.90;;;;;;5051972;28;20318;-60
2023/06/16 05:09:26;;;;;;;1.23;1.13;;;19.10;99.90;;;;;;5051856;28;20212;-58
2023/06/16 05:11:53;;;;;;;1.20;1.20;;;19.20;99.90;;;;;;5056972;28;20595;-59
2023/06/16 05:14:20;;;;;;;1.20;1.20;;;19.30;99.90;;;;;;5051453;28;20204;-59
2023/06/16 05:16:47;;;;;;;1.20;1.10;;;19.40;99.90;;;;;;5052324;28;20203;-59
2023/06/16 05:19:14;;;;;;;1.17;1.17;;;19.50;99.90;;;;;;5051652;28;20591;-60
2023/06/16 05:21:42;;;;;;;1.30;1.20;;;19.60;99.90;;;;;;5052323;28;20613;-59
2023/06/16 05:24:08;;;;;;;1.20;1.20;;;19.70;99.90;;;;;;5052349;28;20211;-60
2023/06/16 05:26:36;;;;;;;1.63;1.20;;;19.80;99.90;;;;;;5055906;28;20216;-59
2023/06/16 05:29:04;;;;;;;1.35;1.33;;;19.90;99.90;;;;;;5061772;28;20211;-61
2023/06/16 05:31:31;;;;;;;1.30;1.15;;;19.70;99.90;;;;;;5051682;28;20216;-61
2023/06/16 05:33:58;;;;;;;1.55;1.20;;;19.50;99.90;;;;;;5052634;28;20222;-60
2023/06/16 05:36:25;;;;;;;1.10;1.10;;;19.50;99.90;;;;;;5051947;28;20200;-60
2023/06/16 05:38:52;;;;;;;1.30;1.30;;;19.40;99.90;;;;;;5053903;28;20211;-60
2023/06/16 05:41:23;;;;;;;1.50;1.40;;;19.50;99.90;;;;;;5050626;28;20243;-61
2023/06/16 05:43:52;;;;;;;1.42;1.25;;;19.60;99.90;;;;;;5046506;28;20204;-60
2023/06/16 05:46:19;;;;;;;1.20;1.20;;;19.70;99.90;;;;;;5050284;28;20318;-60
2023/06/16 05:48:46;;;;;;;1.20;1.20;;;19.70;99.90;;;;;;5052507;28;20722;-60
2023/06/16 05:51:13;;;;;;;1.40;1.25;;;19.90;99.90;;;;;;5050694;28;20243;-60
2023/06/16 05:53:40;;;;;;;1.30;1.30;;;20.00;99.90;;;;;;5051639;28;20283;-60
2023/06/16 05:56:07;;;;;;;1.10;1.10;;;20.20;99.90;;;;;;5058173;28;20202;-60
2023/06/16 05:58:35;;;;;;;1.10;1.10;;;20.30;99.90;;;;;;5050662;28;20717;-61
2023/06/16 06:01:05;;;;;;;1.15;1.15;;;20.40;99.90;;;;;;5054648;28;20270;-60
2023/06/16 06:03:32;;;;;;;1.25;1.20;;;20.60;99.90;;;;;;5050554;28;20666;-60
2023/06/16 06:06:01;;;;;;;1.23;1.23;;;20.80;99.90;;;;;;5050013;28;20210;-60
2023/06/16 06:08:28;;;;;;;1.20;1.20;;;20.90;99.90;;;;;;5050263;28;20254;-59
2023/06/16 06:10:55;;;;;;;1.20;1.20;;;21.00;99.90;;;;;;5048303;28;20200;-60
2023/06/16 06:13:22;;;;;;;1.38;1.10;;;21.10;99.90;;;;;;5050573;28;20853;-60
2023/06/16 06:15:49;;;;;;;1.33;1.33;;;21.20;99.90;;;;;;5050878;28;20662;-61
2023/06/16 06:18:17;;;;;;;1.25;1.25;;;21.10;99.90;;;;;;5051172;28;20276;-60
2023/06/16 06:20:46;;;;;;;1.33;1.27;;;21.20;99.90;;;;;;5050214;28;20210;-61
2023/06/16 06:23:13;;;;;;;1.60;1.23;;;21.30;99.90;;;;;;5051081;28;20200;-60
2023/06/16 06:25:42;;;;;;;1.30;1.30;;;21.40;99.90;;;;;;5050811;28;20210;-60
2023/06/16 06:28:09;;;;;;;1.40;1.30;;;21.50;99.90;;;;;;5051003;28;20270;-61
2023/06/16 06:30:37;;;;;;;0.98;0.98;;;21.60;99.90;;;;;;5050423;28;20295;-60
2023/06/16 06:33:04;;;;;;;1.70;1.42;;;21.80;99.90;;;;;;5050685;28;20204;-60
2023/06/16 06:35:33;;;;;;;1.30;1.30;;;21.90;99.90;;;;;;5050913;28;20216;-62
2023/06/16 06:37:59;;;;;;;1.30;1.30;;;21.90;99.90;;;;;;5051385;28;20200;-61
2023/06/16 06:40:26;;;;;;;1.08;1.08;;;21.90;99.90;;;;;;5053515;28;20208;-61
2023/06/16 06:42:53;;;;;;;1.20;1.20;;;22.10;99.90;;;;;;5052355;28;20227;-62
2023/06/16 06:45:20;;;;;;;1.38;1.35;;;22.10;99.90;;;;;;5051206;28;20280;-60
2023/06/16 06:47:47;;;;;;;1.20;1.20;;;22.20;99.90;;;;;;5051482;28;20242;-60
2023/06/16 06:50:14;;;;;;;1.25;1.23;;;22.30;99.90;;;;;;5050831;28;20208;-60
2023/06/16 06:52:42;;;;;;;1.00;1.00;;;22.50;99.90;;;;;;5070860;22;20251;-63
2023/06/16 06:55:10;;;;;;;2.00;1.75;;;22.60;99.90;;;;;;5071323;28;20210;-61
2023/06/16 06:57:38;;;;;;;1.60;1.50;;;22.60;99.90;;;;;;5075217;28;20210;-62
2023/06/16 07:00:07;;;;;;;1.80;1.50;;;22.40;99.90;;;;;;5088215;28;20231;-62
2023/06/16 07:02:34;;;;;;;1.38;1.38;;;22.20;99.90;;;;;;5075541;28;20240;-63
2023/06/16 07:05:01;;;;;;;1.80;1.70;;;22.20;99.90;;;;;;5075677;28;20230;-62
2023/06/16 07:07:27;;;;;;;1.50;1.40;;;22.40;99.90;;;;;;5075256;28;20247;-61
2023/06/16 07:09:56;;;;;;;1.73;1.40;;;22.40;99.90;;;;;;5074561;28;20290;-63
2023/06/16 07:12:22;;;;;;;1.60;1.50;;;22.50;99.90;;;;;;5075363;28;20310;-62
2023/06/16 07:14:49;;;;;;;1.80;1.70;;;22.70;99.90;;;;;;5074431;28;20665;-64
2023/06/16 07:17:16;;;;;;;1.63;1.52;;;22.80;99.90;;;;;;5074745;28;20242;-63
2023/06/16 07:19:43;;;;;;;1.80;1.60;;;22.80;99.90;;;;;;5074161;28;20203;-63
2023/06/16 07:22:10;;;;;;;1.48;1.38;;;22.90;99.90;;;;;;5074253;28;20227;-63
2023/06/16 07:24:37;;;;;;;1.80;1.70;;;22.90;99.90;;;;;;5074361;28;20215;-63
2023/06/16 07:27:07;;;;;;;1.83;1.40;;;22.90;99.90;;;;;;5074959;28;20559;-61
2023/06/16 07:29:34;;;;;;;1.33;1.30;;;23.00;99.90;;;;;;5074322;28;20203;-62
2023/06/16 07:32:01;;;;;;;1.63;1.52;;;23.20;99.90;;;;;;5074634;28;20276;-64
2023/06/16 07:34:28;;;;;;;1.42;1.30;;;23.30;99.90;;;;;;5074519;28;20217;-64
2023/06/16 07:36:55;;;;;;;1.30;1.30;;;23.40;99.90;;;;;;5076466;28;20199;-64
2023/06/16 07:39:22;;;;;;;1.60;1.50;;;23.50;99.90;;;;;;5075903;28;20699;-63
2023/06/16 07:41:49;;;;;;;1.50;1.40;;;23.50;99.90;;;;;;5073699;28;20223;-64
2023/06/16 07:44:17;;;;;;;1.60;1.50;;;23.20;99.90;;;;;;5074027;28;20214;-65
2023/06/16 07:46:45;;;;;;;1.60;1.50;;;23.20;99.90;;;;;;5073764;28;20215;-65
2023/06/16 07:49:13;;;;;;;1.52;1.42;;;23.30;99.90;;;;;;5073675;28;20608;-63
2023/06/16 07:51:40;;;;;;;1.45;1.45;;;23.70;99.90;;;;;;5073319;28;20719;-63
2023/06/16 07:54:08;;;;;;;1.52;1.42;;;23.60;99.90;;;;;;5074059;28;20203;-64
2023/06/16 07:56:34;;;;;;;1.30;1.30;;;23.70;99.90;;;;;;5073668;28;20203;-63
2023/06/16 07:59:01;;;;;;;1.40;1.35;;;23.80;99.90;;;;;;5073529;28;20203;-62
2023/06/16 08:01:30;;;;;;;1.30;1.30;;;23.80;99.90;;;;;;5072861;28;20214;-64
2023/06/16 08:03:57;;;;;;;1.73;1.38;;;23.90;99.90;;;;;;5068146;28;20253;-62
2023/06/16 08:06:23;;;;;;;1.33;1.30;;;24.00;99.90;;;;;;5053711;28;20579;-63
2023/06/16 08:08:52;;;;;;;1.50;1.40;;;24.10;99.90;;;;;;5052807;28;20224;-64
2023/06/16 08:11:19;;;;;;;1.38;1.30;;;24.20;99.90;;;;;;5053272;28;20216;-61
2023/06/16 08:13:46;;;;;;;1.48;1.40;;;24.20;99.90;;;;;;5053669;28;20411;-63
2023/06/16 08:16:13;;;;;;;1.45;1.20;;;24.30;99.90;;;;;;5053884;28;20680;-64
2023/06/16 08:18:41;;;;;;;1.20;1.20;;;24.30;99.90;;;;;;5053748;28;20294;-62
2023/06/16 08:21:08;;;;;;;1.42;1.33;;;24.40;99.90;;;;;;5053636;28;20650;-63
2023/06/16 08:23:35;;;;;;;1.75;1.65;;;24.50;99.90;;;;;;5053271;28;20224;-63
2023/06/16 08:26:01;;;;;;;1.70;1.60;;;24.50;99.90;;;;;;5053804;28;20208;-61
2023/06/16 08:28:29;;;;;;;1.60;1.50;;;24.20;99.90;;;;;;5052277;28;20232;-64
2023/06/16 08:30:56;;;;;;;1.30;1.30;;;24.40;99.90;;;;;;5052868;28;20219;-61
2023/06/16 08:33:22;;;;;;;1.70;1.40;;;24.50;99.90;;;;;;5051560;28;20321;-63
2023/06/16 08:35:51;;;;;;;4.43;1.50;;;24.70;99.90;;;;;;5052064;28;20206;-62
2023/06/16 08:38:18;;;;;;;1.50;1.40;;;24.70;99.90;;;;;;5051476;28;20222;-62
2023/06/16 08:40:45;;;;;;;1.13;1.13;;;24.70;99.90;;;;;;5051668;28;20686;-62
2023/06/16 08:43:13;;;;;;;1.50;1.40;;;24.80;99.90;;;;;;5051756;28;20220;-63
2023/06/16 08:45:40;;;;;;;1.50;1.40;;;24.80;99.90;;;;;;5052853;28;20665;-62
2023/06/16 08:48:07;;;;;;;1.80;1.70;;;24.90;99.90;;;;;;5051418;28;20234;-63
2023/06/16 08:50:34;;;;;;;1.60;1.50;;;25.00;99.90;;;;;;5051526;28;20328;-63
2023/06/16 08:53:06;;;;;;;1.40;1.30;;;25.00;99.90;;;;;;5051634;28;20678;-63
2023/06/16 08:55:34;;;;;;;1.58;1.40;;;25.10;99.90;;;;;;5052239;28;20210;-64
2023/06/16 08:58:01;;;;;;;1.20;1.20;;;25.40;99.90;;;;;;5052581;28;20295;-63
2023/06/16 09:00:30;;;;;;;2.00;1.48;;;25.50;99.90;;;;;;5052753;28;20685;-63
2023/06/16 09:02:59;;;;;;;1.40;1.30;;;25.60;99.90;;;;;;5053203;28;20223;-63
2023/06/16 09:05:26;;;;;;;1.30;1.30;;;25.70;99.90;;;;;;5052331;28;20208;-63
2023/06/16 09:07:53;;;;;;;1.23;1.20;;;25.90;99.90;;;;;;5052647;28;20759;-62
2023/06/16 09:10:21;;;;;;;1.00;1.00;;;25.80;99.90;;;;;;5055929;28;20207;-63
2023/06/16 09:12:52;;;;;;;1.60;1.50;;;25.90;99.90;;;;;;5052841;28;20224;-65
2023/06/16 09:15:19;;;;;;;1.38;1.30;;;26.00;99.90;;;;;;5052913;28;20230;-63
2023/06/16 09:17:49;;;;;;;1.88;1.38;;;26.10;99.90;;;;;;5061950;28;20260;-63
2023/06/16 09:20:17;;;;;;;1.35;1.25;;;26.10;99.90;;;;;;5056386;28;20287;-64
2023/06/16 09:22:49;;;;;;;1.42;1.33;;;26.20;99.90;;;;;;5052154;28;20585;-64
2023/06/16 09:25:17;;;;;;;1.65;1.55;;;26.30;99.90;;;;;;5052117;28;20222;-62
2023/06/16 09:27:47;;;;;;;1.20;1.20;;;26.40;99.90;;;;;;5052908;28;20219;-63
2023/06/16 09:30:15;;;;;;;1.55;1.30;;;26.50;99.90;;;;;;5073517;28;20308;-62
2023/06/16 09:32:42;;;;;;;1.30;1.20;;;26.50;99.90;;;;;;5076697;28;20323;-62
2023/06/16 09:35:17;;;;;;;1.13;1.13;;;26.60;99.90;;;;;;5072546;28;20206;-62
2023/06/16 09:37:44;;;;;;;1.30;1.30;;;26.70;99.90;;;;;;5071907;28;20198;-64
2023/06/16 09:40:14;;;;;;;1.23;1.23;;;26.90;99.90;;;;;;5071555;28;20665;-63
2023/06/16 09:42:42;;;;;;;1.25;1.15;;;26.90;99.90;;;;;;5072286;28;20223;-64
2023/06/16 09:45:12;;;;;;;1.13;1.13;;;26.90;99.90;;;;;;5075382;28;20207;-63
2023/06/16 09:47:43;;;;;;;1.25;1.25;;;27.00;99.90;;;;;;5073841;28;20650;-66
2023/06/16 09:50:13;;;;;;;1.17;1.17;;;27.10;99.90;;;;;;5071886;28;20207;-62
2023/06/16 09:52:41;;;;;;;1.50;1.40;;;27.20;99.90;;;;;;5071451;28;20239;-63
2023/06/16 09:55:09;;;;;;;1.40;1.30;;;27.30;99.90;;;;;;5073077;28;20236;-63
2023/06/16 09:57:38;;;;;;;2.05;1.58;;;27.30;99.90;;;;;;5071814;28;20203;-63
2023/06/16 10:00:09;;;;;;;1.23;1.13;;;27.20;99.90;;;;;;5076539;28;20265;-64
2023/06/16 10:02:39;;;;;;;0.98;0.98;;;27.20;99.70;;;;;;5072769;28;20223;-64
2023/06/16 10:05:10;;;;;;;1.50;1.40;;;27.30;99.20;;;;;;5072014;28;20223;-65
2023/06/16 10:07:38;;;;;;;1.60;1.50;;;27.40;99.20;;;;;;5072503;28;20219;-62
2023/06/16 10:10:10;;;;;;;1.35;1.30;;;27.40;99.30;;;;;;5073830;28;20584;-64
2023/06/16 10:12:37;;;;;;;1.30;1.20;;;27.50;99.40;;;;;;5073589;28;20230;-63
2023/06/16 10:15:08;;;;;;;1.45;1.35;;;27.60;98.90;;;;;;5071782;28;20669;-64
2023/06/16 10:17:38;;;;;;;1.25;1.25;;;27.70;98.10;;;;;;5071364;28;20210;-62
2023/06/16 10:20:09;;;;;;;1.67;1.58;;;27.80;97.60;;;;;;5071086;28;20207;-63
2023/06/16 10:22:37;;;;;;;1.40;1.30;;;27.80;97.80;;;;;;5071264;28;20280;-64
2023/06/16 10:25:06;;;;;;;1.35;1.27;;;27.60;98.10;;;;;;5073166;28;20207;-63
2023/06/16 10:27:33;;;;;;;1.25;1.20;;;27.60;97.80;;;;;;5070964;28;20230;-63
2023/06/16 10:30:01;;;;;;;1.23;1.23;;;27.70;98.50;;;;;;5061683;28;20305;-64
2023/06/16 10:32:28;;;;;;;1.50;1.20;;;27.80;98.30;;;;;;5075423;28;20712;-64
2023/06/16 10:35:00;;;;;;;1.17;1.17;;;28.00;97.60;;;;;;5067944;28;20502;-63
2023/06/16 10:37:29;;;;;;;1.30;1.20;;;27.90;96.40;;;;;;5075272;28;20199;-62
2023/06/16 10:39:57;;;;;;;1.50;1.40;;;28.00;96.50;;;;;;5075062;28;20707;-61
2023/06/16 10:42:24;;;;;;;1.20;1.20;;;28.20;95.80;;;;;;5075150;28;20248;-63
2023/06/16 10:44:52;;;;;;;1.35;1.30;;;28.20;96.50;;;;;;5075489;28;20207;-63
2023/06/16 10:47:37;;;;;;;1.33;1.30;;;28.40;95.70;;;;;;5075320;28;20472;-65
2023/06/16 10:50:06;;;;;;;1.20;1.20;;;28.60;95.30;;;;;;5075303;28;20321;-64
2023/06/16 10:52:53;;;;;;;1.33;1.30;;;28.30;94.60;;;;;;5074605;28;20243;-63
2023/06/16 10:55:31;;;;;;;1.20;1.20;;;28.40;94.50;;;;;;5075063;28;20316;-64
2023/06/16 10:58:21;;;;;;;1.08;1.08;;;28.40;94.00;;;;;;5074910;28;20210;-64
2023/06/16 11:01:05;;;;;;;1.55;1.23;;;28.50;94.00;;;;;;5074932;28;20209;-63
2023/06/16 11:03:36;;;;;;;1.40;1.30;;;28.60;92.90;;;;;;5075034;28;20233;-64
2023/06/16 11:06:05;;;;;;;1.40;1.30;;;28.60;92.70;;;;;;5076271;28;20760;-65
2023/06/16 11:08:48;;;;;;;1.30;1.20;;;28.70;92.40;;;;;;5074999;28;20668;-64
2023/06/16 11:11:15;;;;;;;1.10;1.10;;;28.90;92.20;;;;;;5074989;28;20564;-63
2023/06/16 11:13:42;;;;;;;2.28;1.52;;;29.00;92.40;;;;;;5074514;28;20333;-63
2023/06/16 11:16:09;;;;;;;1.50;1.40;;;29.10;92.10;;;;;;5073871;28;20203;-63
2023/06/16 11:18:36;;;;;;;1.73;1.50;;;29.20;91.20;;;;;;5075331;28;20199;-65
2023/06/16 11:21:06;;;;;;;1.50;1.40;;;29.10;91.60;;;;;;5074175;28;20207;-62
2023/06/16 11:23:34;;;;;;;1.48;1.38;;;28.90;91.00;;;;;;5084025;28;20219;-64
2023/06/16 11:26:07;;;;;;;1.20;1.20;;;28.60;90.60;;;;;;5080181;28;20211;-64
2023/06/16 11:28:35;;;;;;;2.00;1.85;;;28.60;91.30;;;;;;5076719;28;20237;-62
2023/06/16 11:31:02;;;;;;;1.10;1.10;;;28.70;91.30;;;;;;5061271;28;20204;-63
2023/06/16 11:33:32;;;;;;;1.45;1.42;;;28.80;92.10;;;;;;5055955;28;20769;-65
2023/06/16 11:36:14;;;;;;;1.48;1.38;;;28.60;91.80;;;;;;5055282;28;20285;-67
2023/06/16 11:38:43;;;;;;;1.40;1.30;;;28.70;89.20;;;;;;5055078;28;20211;-65
2023/06/16 11:41:15;;;;;;;1.48;1.38;;;28.80;88.10;;;;;;5054046;28;20291;-64
2023/06/16 11:43:42;;;;;;;1.40;1.30;;;28.90;90.00;;;;;;5053150;28;20235;-63
2023/06/16 11:46:09;;;;;;;1.20;1.20;;;28.80;88.90;;;;;;5054463;28;20204;-64
2023/06/16 11:48:38;;;;;;;1.40;1.30;;;28.20;88.00;;;;;;5054124;28;20227;-63
2023/06/16 11:51:07;;;;;;;1.73;1.30;;;28.10;87.80;;;;;;5055089;28;20200;-65
2023/06/16 11:53:35;;;;;;;1.25;1.20;;;27.90;88.30;;;;;;5056119;28;20641;-66
2023/06/16 11:56:04;;;;;;;1.10;1.10;;;27.90;89.30;;;;;;5053864;28;20204;-62
2023/06/16 11:58:31;;;;;;;1.15;1.13;;;28.00;88.10;;;;;;5054000;28;20214;-65
2023/06/16 12:01:01;;;;;;;2.08;1.50;;;28.30;90.10;;;;;;5054282;28;20208;-64
2023/06/16 12:03:29;;;;;;;1.48;1.10;;;28.30;85.70;;;;;;5053773;28;20267;-63
2023/06/16 12:05:57;;;;;;;1.10;1.10;;;28.40;87.20;;;;;;5053967;28;20223;-63
2023/06/16 12:08:48;;;;;;;1.30;1.30;;;28.70;87.20;;;;;;5054789;28;20226;-61
2023/06/16 12:11:21;;;;;;;1.30;1.20;;;28.90;87.30;;;;;;5049589;28;20200;-63
2023/06/16 12:13:48;;;;;;;1.38;1.27;;;28.70;86.40;;;;;;5053681;28;20263;-64
2023/06/16 12:16:16;;;;;;;1.70;1.60;;;28.90;86.50;;;;;;5053420;28;20204;-65
2023/06/16 12:18:42;;;;;;;1.60;1.55;;;28.60;84.60;;;;;;5054592;28;20204;-65
2023/06/16 12:21:16;;;;;;;1.90;1.63;;;28.50;84.40;;;;;;5054124;28;20206;-64
2023/06/16 12:23:47;;;;;;;1.60;1.50;;;28.40;84.10;;;;;;5054329;28;20236;-64
2023/06/16 12:26:29;;;;;;;1.38;1.30;;;28.60;86.30;;;;;;5054667;28;20613;-65
2023/06/16 12:28:57;;;;;;;1.48;1.40;;;28.90;85.00;;;;;;5053097;28;20226;-62
2023/06/16 12:31:26;;;;;;;1.10;1.10;;;29.00;85.10;;;;;;5070024;28;20215;-63
2023/06/16 12:33:53;;;;;;;1.20;1.20;;;29.20;85.90;;;;;;5073014;28;20309;-62
2023/06/16 12:36:20;;;;;;;1.38;1.27;;;29.30;83.50;;;;;;5073021;28;20583;-64
2023/06/16 12:38:47;;;;;;;1.38;1.27;;;29.40;84.70;;;;;;5072798;28;20207;-62
2023/06/16 12:41:15;;;;;;;1.33;1.23;;;29.50;85.20;;;;;;5072649;28;20211;-64
2023/06/16 12:43:48;;;;;;;1.60;1.35;;;29.50;85.50;;;;;;5072921;28;20223;-63
2023/06/16 12:46:16;;;;;;;1.30;1.20;;;29.40;84.40;;;;;;5073498;28;20254;-63
2023/06/16 12:48:43;;;;;;;1.38;1.27;;;29.50;84.50;;;;;;5065892;28;20682;-63
2023/06/16 12:51:10;;;;;;;1.60;1.27;;;29.60;84.70;;;;;;5060674;28;20293;-63
2023/06/16 12:53:41;;;;;;;1.20;1.20;;;29.50;83.60;;;;;;5084118;22;20571;-62